Lyon Satolas, France

5:03 PM CET on November 27, 2014 (GMT +0100)
Saint Exupery | Change Station
CLOSE
Current Station
Airport
Location: Lyon Satolas,
Elevation: 787 ft
Nearby Weather Stations

Elev 787 ft 45.73 °N, 5.08 °E | Updated 33 minutes ago

Mostly Cloudy
Mostly Cloudy
61 °F
Feels Like 61 °F
N
6
Wind Variable Wind from South

Today
High -- | Low -- °F
--% Chance of Precip.
Yesterday
High -- | Low -- °F
Precip. -- in
7:55 AM 4:59 PM
Waxing Crescent, 30% visible
Pressure 29.65 in
Visibility 6.2 miles
Clouds Few 4300 ft
Scattered Clouds 8000 ft
Mostly Cloudy 26000 ft
Dew Point 50 °F
Humidity 68%
Rainfall 0.00 in
Snow Depth Not available.
UV 0 out of 12
Pollen Not available.
Air Quality Not available.
Flu Activity Not available.
METAR LFLL 271530Z 17005KT 9999 FEW043 SCT080 BKN260 16/10 Q1004 NOSIG

More Conditions Fewer Conditions

Pressure 29.65 in
Visibility 6.2 miles
Clouds Few 4300 ft
Scattered Clouds 8000 ft
Mostly Cloudy 26000 ft
Dew Point 50 °F
Humidity 68%
Rainfall 0.00 in
Snow Depth Not available.
UV 0 out of 12
Pollen Not available.
Air Quality Not available.
Flu Activity Not available.
METAR LFLL 271530Z 17005KT 9999 FEW043 SCT080 BKN260 16/10 Q1004 NOSIG

More Conditions Fewer Conditions

10-Day Weather Forecast

Almanac

Astronomy

Nov. 27, 2014 Rise Set
Actual Time
Civil Twilight
Nautical Twilight
Astronomical Twilight
Moon
Length of Visible Light
Length of Day
Tomorrow will be .
, % of the Moon is Illuminated

Today's Extremes

Country Highs Country Lows

Community

WunderPhotos

Upload Photos

1,774,031 photos uploaded!

WunderBlogs® & News

Nearby

Air Quality

  Air Quality AQ Index Pollutant
Not available.

Snow Depth

Station Depth Elevation

Earthquake Activity

City Distance Mag. Time & Date
Minimum magnitude displayed is 2.5.

Coastal Water Temperatures

Place Temperature

Nearby Weather Stations